createdAt,value
2019-05-09T00:00:34.462Z,73.35
2019-05-09T00:03:00.526Z,73.87
2019-05-09T00:05:26.663Z,73.67
2019-05-09T00:07:53.258Z,73.13
2019-05-09T00:10:19.334Z,72.91
2019-05-09T00:12:45.302Z,73.41
2019-05-09T00:15:13.502Z,74.27
2019-05-09T00:17:39.361Z,74.74
2019-05-09T00:20:05.603Z,75.31
2019-05-09T00:22:33.241Z,75.77
2019-05-09T00:24:59.214Z,75.64
2019-05-09T00:27:25.269Z,75.38
2019-05-09T00:29:53.149Z,76.23
2019-05-09T00:32:19.370Z,76.86
2019-05-09T00:34:45.372Z,76.38
2019-05-09T00:37:13.414Z,75.05
2019-05-09T00:39:39.251Z,75.38
2019-05-09T00:42:05.441Z,76.43
2019-05-09T00:44:31.341Z,77.29
2019-05-09T00:46:57.469Z,77.00
2019-05-09T00:49:23.738Z,77.58
2019-05-09T00:51:49.678Z,76.72
2019-05-09T00:54:15.691Z,76.71
2019-05-09T00:56:43.641Z,75.90
2019-05-09T00:59:10.711Z,74.98
2019-05-09T01:01:36.667Z,74.14
2019-05-09T01:04:04.360Z,73.00
2019-05-09T01:06:30.594Z,72.69
2019-05-09T01:08:56.493Z,72.54
2019-05-09T01:11:24.466Z,71.66
2019-05-09T01:13:51.237Z,71.51
2019-05-09T01:16:17.174Z,71.79
2019-05-09T01:18:43.840Z,72.32
2019-05-09T01:21:09.953Z,72.63
2019-05-09T01:23:35.982Z,73.55
2019-05-09T01:26:03.838Z,73.94
2019-05-09T01:28:29.842Z,73.98
2019-05-09T01:30:55.778Z,74.03
2019-05-09T01:33:24.053Z,74.71
2019-05-09T01:35:49.513Z,75.42
2019-05-09T01:38:15.472Z,74.09
2019-05-09T01:40:43.734Z,73.71
2019-05-09T01:43:09.337Z,72.92
2019-05-09T01:45:35.467Z,72.56
2019-05-09T01:48:03.270Z,72.84
2019-05-09T01:50:29.215Z,72.13
2019-05-09T01:52:55.336Z,73.55
2019-05-09T01:55:23.475Z,73.93
2019-05-09T01:57:49.540Z,73.55
2019-05-09T02:00:16.227Z,73.53
2019-05-09T02:02:43.331Z,73.92
2019-05-09T02:05:09.778Z,74.39
2019-05-09T02:07:35.914Z,73.28
2019-05-09T02:10:04.021Z,73.62
2019-05-09T02:12:30.036Z,73.62
2019-05-09T02:14:56.135Z,74.63
2019-05-09T02:17:23.249Z,74.85
2019-05-09T02:19:49.404Z,73.79
2019-05-09T02:22:15.364Z,74.24
2019-05-09T02:24:41.270Z,74.45
2019-05-09T02:27:07.180Z,74.47
2019-05-09T02:29:33.834Z,74.68
2019-05-09T02:31:59.861Z,74.54
2019-05-09T02:34:25.821Z,74.42
2019-05-09T02:36:51.766Z,74.95
2019-05-09T02:39:18.831Z,74.73
2019-05-09T02:42:01.198Z,73.96
2019-05-09T02:44:13.384Z,74.23
2019-05-09T02:46:39.334Z,74.98
2019-05-09T02:49:08.564Z,75.45
2019-05-09T02:51:33.271Z,75.47
2019-05-09T02:53:59.172Z,75.68
2019-05-09T02:56:25.223Z,75.54
2019-05-09T02:58:51.328Z,75.65
2019-05-09T03:01:18.961Z,75.45
2019-05-09T03:03:48.054Z,75.44
2019-05-09T03:06:13.082Z,75.22
2019-05-09T03:08:39.190Z,75.83
2019-05-09T03:11:05.283Z,75.45
2019-05-09T03:13:31.560Z,74.72
2019-05-09T03:15:58.651Z,74.22
2019-05-09T03:18:24.834Z,74.26
2019-05-09T03:20:50.793Z,74.05
2019-05-09T03:23:19.166Z,72.93
2019-05-09T03:25:48.251Z,73.07
2019-05-09T03:28:13.057Z,73.00
2019-05-09T03:30:40.049Z,73.69
2019-05-09T03:33:09.933Z,74.33
2019-05-09T03:35:34.030Z,74.33
2019-05-09T03:37:59.958Z,75.07
2019-05-09T03:40:27.229Z,74.69
2019-05-09T03:42:53.325Z,74.15
2019-05-09T03:45:19.431Z,73.99
2019-05-09T03:47:45.372Z,74.55
2019-05-09T03:50:11.324Z,74.27
2019-05-09T03:52:37.532Z,74.76
2019-05-09T03:55:07.326Z,74.92
2019-05-09T03:57:33.320Z,74.65
2019-05-09T03:59:59.273Z,74.46
2019-05-09T04:02:25.333Z,74.69
2019-05-09T04:04:51.241Z,74.02
2019-05-09T04:07:18.667Z,74.13
2019-05-09T04:09:44.702Z,73.67
2019-05-09T04:12:10.615Z,73.59
2019-05-09T04:14:37.554Z,73.78
2019-05-09T04:17:03.827Z,73.83
2019-05-09T04:19:31.394Z,73.78
2019-05-09T04:21:57.754Z,73.49
2019-05-09T04:24:23.829Z,72.29
2019-05-09T04:26:49.930Z,72.99
2019-05-09T04:29:18.211Z,73.33
2019-05-09T04:31:43.730Z,72.84
2019-05-09T04:34:09.964Z,72.33
2019-05-09T04:36:37.783Z,72.46
2019-05-09T04:39:07.661Z,72.75
2019-05-09T04:41:33.585Z,72.45
2019-05-09T04:43:59.549Z,72.94
2019-05-09T04:46:27.695Z,72.32
2019-05-09T04:48:54.184Z,71.80
2019-05-09T04:51:21.420Z,66.52
2019-05-09T04:53:48.093Z,64.00
2019-05-09T04:56:14.053Z,63.62
2019-05-09T04:58:40.102Z,64.88
2019-05-09T05:01:07.310Z,66.04
2019-05-09T05:03:33.565Z,66.65
2019-05-09T05:05:59.490Z,65.35
2019-05-09T05:08:25.525Z,65.35
2019-05-09T05:10:51.583Z,66.47
2019-05-09T05:13:26.266Z,62.83
2019-05-09T05:15:47.498Z,60.06
2019-05-09T05:18:13.338Z,61.50
2019-05-09T05:20:39.332Z,63.38
2019-05-09T05:23:08.247Z,63.85
2019-05-09T05:25:34.507Z,65.08
2019-05-09T05:28:00.928Z,66.77
2019-05-09T05:30:28.393Z,67.63
2019-05-09T05:32:54.529Z,66.33
2019-05-09T05:35:20.632Z,66.28
2019-05-09T05:37:49.510Z,66.10
2019-05-09T05:40:17.819Z,66.76
2019-05-09T05:42:43.889Z,67.42
2019-05-09T05:45:09.994Z,67.59
2019-05-09T05:47:37.943Z,65.52
2019-05-09T05:50:04.170Z,66.09
2019-05-09T05:52:30.147Z,64.90
2019-05-09T05:54:58.071Z,65.23
2019-05-09T05:57:23.953Z,66.21
2019-05-09T05:59:49.918Z,66.78
2019-05-09T06:02:17.814Z,67.14
2019-05-09T06:04:43.963Z,66.93
2019-05-09T06:07:10.093Z,66.62
2019-05-09T06:09:38.103Z,66.49
2019-05-09T06:12:04.422Z,66.04
2019-05-09T06:14:30.600Z,66.24
2019-05-09T06:16:58.763Z,66.73
2019-05-09T06:19:24.697Z,65.87
2019-05-09T06:21:52.396Z,66.24
2019-05-09T06:24:18.655Z,66.44
2019-05-09T06:26:44.722Z,65.94
2019-05-09T06:29:10.666Z,66.50
2019-05-09T06:31:37.613Z,67.35
2019-05-09T06:34:03.984Z,65.79
2019-05-09T06:36:29.946Z,60.17
2019-05-09T06:38:58.559Z,56.04
2019-05-09T06:41:23.853Z,57.57
2019-05-09T06:43:51.860Z,57.59
2019-05-09T06:46:18.341Z,58.60
2019-05-09T06:48:44.632Z,57.96
2019-05-09T06:51:10.887Z,59.02
2019-05-09T06:53:38.072Z,60.29
2019-05-09T06:56:04.791Z,61.66
2019-05-09T06:58:30.953Z,61.58
2019-05-09T07:00:58.444Z,61.49
2019-05-09T07:03:24.470Z,61.41
2019-05-09T07:05:50.374Z,62.33
2019-05-09T07:08:18.336Z,61.92
2019-05-09T07:10:44.333Z,62.07
2019-05-09T07:13:10.283Z,62.76
2019-05-09T07:15:37.652Z,62.53
2019-05-09T07:18:03.786Z,62.28
2019-05-09T07:20:29.752Z,63.48
2019-05-09T07:22:58.058Z,61.76
2019-05-09T07:25:23.780Z,61.22
2019-05-09T07:27:49.707Z,60.12
2019-05-09T07:30:17.992Z,60.12
2019-05-09T07:32:44.071Z,59.40
2019-05-09T07:35:10.149Z,59.82
2019-05-09T07:37:37.971Z,60.02
2019-05-09T07:40:05.665Z,59.50
2019-05-09T07:42:31.594Z,59.58
2019-05-09T07:44:59.108Z,59.99
2019-05-09T07:47:28.098Z,59.29
2019-05-09T07:49:53.843Z,59.29
2019-05-09T07:52:19.759Z,60.53
2019-05-09T07:54:48.179Z,60.39
2019-05-09T07:57:13.886Z,59.51
2019-05-09T07:59:39.798Z,59.61
2019-05-09T08:02:05.737Z,60.64
2019-05-09T08:04:31.642Z,59.50
2019-05-09T08:06:57.977Z,58.49
2019-05-09T08:09:25.079Z,58.36
2019-05-09T08:11:51.021Z,57.04
2019-05-09T08:14:17.719Z,55.18
2019-05-09T08:16:47.365Z,54.13
2019-05-09T08:19:12.894Z,56.13
2019-05-09T08:21:38.838Z,54.09
2019-05-09T08:24:04.754Z,52.70
2019-05-09T08:26:30.689Z,53.10
2019-05-09T08:28:58.422Z,51.00
2019-05-09T08:31:24.463Z,51.78
2019-05-09T08:33:50.371Z,52.33
2019-05-09T08:36:19.822Z,52.31
2019-05-09T08:38:47.611Z,53.11
2019-05-09T08:41:13.209Z,54.17
2019-05-09T08:43:41.162Z,53.14
2019-05-09T08:46:07.967Z,54.54
2019-05-09T08:48:34.397Z,53.37
2019-05-09T08:51:00.409Z,53.40
2019-05-09T08:53:27.603Z,52.64
2019-05-09T08:55:53.775Z,53.23
2019-05-09T08:58:20.210Z,53.06
2019-05-09T09:00:48.398Z,49.69
2019-05-09T09:03:14.240Z,50.74
2019-05-09T09:05:43.264Z,50.33
2019-05-09T09:08:09.363Z,50.10
2019-05-09T09:10:38.060Z,48.14
2019-05-09T09:13:03.414Z,49.18
2019-05-09T09:15:56.138Z,46.96
2019-05-09T09:17:57.853Z,48.46
2019-05-09T09:20:24.066Z,47.54
2019-05-09T09:22:50.103Z,46.87
2019-05-09T09:25:18.334Z,47.14
2019-05-09T09:27:47.527Z,47.87
2019-05-09T09:30:20.226Z,47.83
2019-05-09T09:32:39.847Z,47.43
2019-05-09T09:35:08.014Z,48.75
2019-05-09T09:37:47.839Z,49.18
2019-05-09T09:40:04.759Z,49.48
2019-05-09T09:42:30.699Z,49.26
2019-05-09T09:44:58.565Z,50.33
2019-05-09T09:47:24.544Z,50.73
2019-05-09T09:49:50.446Z,47.49
2019-05-09T09:52:18.750Z,46.12
2019-05-09T09:54:44.576Z,47.82
2019-05-09T09:57:10.518Z,48.11
2019-05-09T09:59:40.183Z,50.29
2019-05-09T10:02:04.575Z,47.45
2019-05-09T10:04:30.607Z,48.41
2019-05-09T10:06:58.326Z,45.81
2019-05-09T10:09:24.370Z,47.32
2019-05-09T10:11:50.417Z,46.91
2019-05-09T10:14:18.520Z,48.08
2019-05-09T10:16:44.352Z,47.96
2019-05-09T10:19:10.254Z,47.89
2019-05-09T10:21:38.201Z,46.73
2019-05-09T10:24:04.123Z,45.77
2019-05-09T10:26:30.316Z,48.35
2019-05-09T10:28:56.223Z,46.46
2019-05-09T10:31:22.162Z,47.39
2019-05-09T10:33:48.401Z,47.73
2019-05-09T10:36:14.729Z,48.91
2019-05-09T10:38:40.703Z,44.27
2019-05-09T10:41:10.979Z,43.17
2019-05-09T10:43:38.812Z,42.26
2019-05-09T10:46:03.169Z,45.86
2019-05-09T10:48:29.332Z,44.96
2019-05-09T10:51:03.520Z,46.85
2019-05-09T10:53:23.520Z,45.89
2019-05-09T10:55:49.599Z,45.69
2019-05-09T10:58:15.734Z,45.52
2019-05-09T11:00:41.857Z,48.37
2019-05-09T11:03:08.783Z,48.91
2019-05-09T11:05:35.122Z,49.40
2019-05-09T11:08:01.196Z,49.46
2019-05-09T11:10:40.806Z,47.64
2019-05-09T11:13:09.656Z,46.76
2019-05-09T11:15:37.528Z,46.87
2019-05-09T11:18:03.793Z,46.07
2019-05-09T11:20:30.020Z,46.39
2019-05-09T11:22:58.184Z,48.44
2019-05-09T11:25:24.109Z,49.96
2019-05-09T11:28:06.978Z,50.13
2019-05-09T11:30:18.576Z,50.33
2019-05-09T11:32:44.616Z,49.59
2019-05-09T11:35:10.823Z,49.83
2019-05-09T11:37:40.635Z,50.03
2019-05-09T11:40:08.527Z,51.36
2019-05-09T11:42:35.109Z,50.83
2019-05-09T11:45:09.191Z,52.38
2019-05-09T11:47:44.761Z,55.55
2019-05-09T11:50:08.764Z,56.63
2019-05-09T11:52:38.296Z,57.83
2019-05-09T11:55:28.875Z,59.12
2019-05-09T11:57:40.068Z,58.16
2019-05-09T12:00:08.276Z,57.45
2019-05-09T12:02:34.859Z,57.27
2019-05-09T12:05:00.906Z,56.65
2019-05-09T12:07:28.812Z,56.56
2019-05-09T12:09:54.865Z,57.59
2019-05-09T12:12:20.899Z,57.50
2019-05-09T12:14:48.368Z,56.26
2019-05-09T12:17:14.749Z,55.54
2019-05-09T12:19:40.667Z,56.83
2019-05-09T12:22:08.930Z,58.30
2019-05-09T12:24:34.684Z,60.20
2019-05-09T12:27:03.037Z,54.96
2019-05-09T12:29:28.896Z,55.19
2019-05-09T12:31:54.805Z,51.83
2019-05-09T12:34:20.873Z,52.64
2019-05-09T12:36:49.291Z,51.92
2019-05-09T12:39:14.626Z,52.01
2019-05-09T12:41:40.642Z,51.11
2019-05-09T12:44:08.860Z,51.07
2019-05-09T12:46:34.569Z,49.48
2019-05-09T12:49:00.478Z,49.13
2019-05-09T12:51:28.190Z,50.49
2019-05-09T12:53:54.351Z,47.99
2019-05-09T12:56:20.374Z,49.02
2019-05-09T12:58:47.734Z,49.53
2019-05-09T13:01:17.998Z,50.15
2019-05-09T13:03:43.989Z,50.86
2019-05-09T13:06:10.142Z,51.63
2019-05-09T13:08:38.335Z,51.66
2019-05-09T13:11:03.942Z,52.58
2019-05-09T13:13:32.169Z,51.95
2019-05-09T13:15:58.241Z,50.88
2019-05-09T13:18:25.476Z,50.35
2019-05-09T13:20:52.139Z,48.40
2019-05-09T13:23:18.460Z,48.45
2019-05-09T13:25:44.392Z,48.52
2019-05-09T13:28:10.522Z,47.60
2019-05-09T13:30:38.032Z,47.47
2019-05-09T13:33:07.261Z,48.45
2019-05-09T13:35:31.991Z,47.23
2019-05-09T13:37:59.669Z,49.38
2019-05-09T13:40:29.065Z,49.87
2019-05-09T13:42:53.710Z,51.51
2019-05-09T13:45:19.846Z,49.23
2019-05-09T13:47:47.755Z,48.53
2019-05-09T13:50:13.699Z,49.11
2019-05-09T13:52:39.648Z,48.36
2019-05-09T13:55:08.493Z,49.09
2019-05-09T13:57:34.323Z,48.89
2019-05-09T14:00:00.410Z,50.54
2019-05-09T14:02:28.555Z,51.84
2019-05-09T14:04:54.217Z,54.09
2019-05-09T14:07:20.159Z,54.30
2019-05-09T14:09:48.374Z,54.22
2019-05-09T14:12:14.102Z,54.04
2019-05-09T14:14:40.120Z,57.43
2019-05-09T14:17:08.533Z,60.51
2019-05-09T14:19:43.609Z,62.33
2019-05-09T14:22:02.725Z,64.24
2019-05-09T14:24:30.890Z,62.16
2019-05-09T14:26:58.238Z,60.51
2019-05-09T14:29:24.344Z,59.85
2019-05-09T14:31:50.437Z,58.08
2019-05-09T14:34:19.387Z,56.83
2019-05-09T14:36:45.717Z,57.86
2019-05-09T14:39:12.145Z,59.24
2019-05-09T14:41:39.156Z,58.59
2019-05-09T14:44:05.425Z,59.81
2019-05-09T14:46:31.495Z,59.81
2019-05-09T14:48:58.407Z,59.20
2019-05-09T14:51:24.630Z,58.30
2019-05-09T14:53:50.615Z,55.31
2019-05-09T14:56:16.532Z,58.44
2019-05-09T14:58:42.521Z,57.24
2019-05-09T15:01:09.655Z,57.24
2019-05-09T15:03:35.566Z,57.68
2019-05-09T15:06:02.863Z,57.75
2019-05-09T15:08:28.930Z,55.95
2019-05-09T15:10:55.115Z,56.46
2019-05-09T15:13:21.340Z,56.05
2019-05-09T15:15:48.086Z,54.69
2019-05-09T15:18:14.209Z,55.59
2019-05-09T15:20:40.320Z,55.13
2019-05-09T15:23:08.453Z,55.64
2019-05-09T15:25:34.122Z,55.63
2019-05-09T15:28:00.440Z,56.58
2019-05-09T15:30:28.672Z,57.28
2019-05-09T15:32:54.732Z,56.22
2019-05-09T15:35:21.875Z,56.58
2019-05-09T15:37:48.203Z,56.09
2019-05-09T15:40:14.607Z,56.62
2019-05-09T15:42:40.619Z,55.58
2019-05-09T15:45:07.805Z,55.28
2019-05-09T15:47:34.137Z,54.24
2019-05-09T15:50:15.536Z,54.42
2019-05-09T15:52:28.660Z,53.95
2019-05-09T15:54:54.832Z,53.28
2019-05-09T15:57:20.855Z,55.12
2019-05-09T15:59:47.939Z,54.74
2019-05-09T16:02:14.114Z,53.73
2019-05-09T16:04:40.514Z,53.28
2019-05-09T16:07:06.929Z,53.39
2019-05-09T16:09:32.830Z,54.51
2019-05-09T16:11:58.765Z,54.94
2019-05-09T16:14:24.815Z,54.88
2019-05-09T16:16:50.783Z,55.48
2019-05-09T16:19:16.777Z,55.25
2019-05-09T16:21:42.760Z,55.03
2019-05-09T16:24:08.904Z,56.01
2019-05-09T16:26:35.028Z,55.42
2019-05-09T16:29:01.338Z,55.01
2019-05-09T16:31:38.410Z,56.21
2019-05-09T16:34:05.628Z,56.61
2019-05-09T16:36:31.631Z,55.90
2019-05-09T16:38:58.474Z,55.61
2019-05-09T16:41:24.767Z,56.65
2019-05-09T16:43:50.783Z,56.00
2019-05-09T16:46:18.106Z,57.13
2019-05-09T16:48:44.326Z,57.94
2019-05-09T16:51:11.337Z,58.27
2019-05-09T16:53:37.278Z,58.59
2019-05-09T16:56:04.323Z,58.14
2019-05-09T16:58:30.280Z,57.69
2019-05-09T17:00:56.903Z,58.02
2019-05-09T17:03:22.842Z,58.47
2019-05-09T17:05:48.849Z,58.69
2019-05-09T17:08:17.590Z,59.65
2019-05-09T17:10:43.004Z,57.58
2019-05-09T17:13:09.318Z,59.03
2019-05-09T17:15:35.513Z,59.14
2019-05-09T17:18:02.882Z,58.15
2019-05-09T17:20:28.852Z,60.15
2019-05-09T17:23:09.987Z,59.73
2019-05-09T17:25:22.641Z,60.61
2019-05-09T17:27:48.779Z,60.71
2019-05-09T17:30:15.138Z,61.64
2019-05-09T17:32:41.149Z,61.75
2019-05-09T17:35:07.536Z,61.89
2019-05-09T17:37:33.538Z,60.38
2019-05-09T17:40:00.616Z,59.36
2019-05-09T17:42:27.709Z,57.73
2019-05-09T17:44:53.840Z,57.76
2019-05-09T17:47:19.942Z,57.77
2019-05-09T17:49:48.079Z,58.68
2019-05-09T17:52:13.801Z,57.96
2019-05-09T17:54:39.741Z,59.13
2019-05-09T17:57:07.946Z,59.21
2019-05-09T17:59:34.143Z,59.92
2019-05-09T18:02:00.083Z,60.26
2019-05-09T18:04:28.587Z,60.40
2019-05-09T18:06:54.238Z,61.49
2019-05-09T18:09:20.243Z,61.78
2019-05-09T18:11:48.155Z,62.29
2019-05-09T18:14:14.119Z,62.56
2019-05-09T18:16:40.178Z,63.24
2019-05-09T18:19:08.566Z,62.25
2019-05-09T18:21:49.599Z,62.71
2019-05-09T18:24:02.960Z,62.55
2019-05-09T18:26:29.846Z,62.96
2019-05-09T18:28:59.454Z,62.96
2019-05-09T18:31:23.921Z,63.11
2019-05-09T18:33:50.109Z,63.60
2019-05-09T18:36:16.179Z,63.45
2019-05-09T18:38:42.137Z,63.32
2019-05-09T18:41:10.249Z,64.14
2019-05-09T18:43:36.398Z,64.39
2019-05-09T18:46:02.509Z,64.39
2019-05-09T18:48:28.573Z,63.76
2019-05-09T18:50:54.598Z,64.32
2019-05-09T18:53:20.628Z,65.25
2019-05-09T18:55:46.835Z,65.25
2019-05-09T18:58:12.797Z,65.00
2019-05-09T19:00:38.876Z,65.13
2019-05-09T19:03:04.999Z,65.11
2019-05-09T19:05:31.153Z,65.44
2019-05-09T19:07:57.485Z,66.09
2019-05-09T19:10:23.929Z,66.26
2019-05-09T19:12:50.091Z,66.84
2019-05-09T19:15:16.751Z,66.37
2019-05-09T19:17:42.776Z,66.37
2019-05-09T19:20:08.987Z,66.93
2019-05-09T19:22:36.025Z,66.66
2019-05-09T19:25:02.164Z,66.69
2019-05-09T19:27:29.537Z,66.87
2019-05-09T19:29:57.438Z,66.76
2019-05-09T19:32:23.459Z,67.13
2019-05-09T19:34:49.367Z,67.47
2019-05-09T19:37:15.460Z,67.97
2019-05-09T19:39:42.451Z,67.94
2019-05-09T19:42:08.359Z,67.74
2019-05-09T19:44:34.311Z,67.82
2019-05-09T19:47:01.610Z,67.72
2019-05-09T19:49:27.965Z,67.84
2019-05-09T19:51:53.867Z,67.99
2019-05-09T19:54:19.973Z,68.55
2019-05-09T19:56:46.185Z,68.59
2019-05-09T19:59:12.165Z,68.46
2019-05-09T20:01:38.299Z,68.52
2019-05-09T20:04:04.519Z,68.72
2019-05-09T20:06:30.645Z,68.67
2019-05-09T20:08:56.691Z,68.85
2019-05-09T20:11:22.704Z,68.74
2019-05-09T20:13:48.986Z,69.03
2019-05-09T20:16:14.944Z,69.56
2019-05-09T20:18:40.880Z,69.16
2019-05-09T20:21:06.985Z,69.13
2019-05-09T20:23:33.179Z,69.56
2019-05-09T20:25:59.273Z,68.95
2019-05-09T20:28:25.493Z,69.17
2019-05-09T20:30:51.931Z,68.52
2019-05-09T20:33:19.099Z,68.83
2019-05-09T20:35:47.244Z,68.50
2019-05-09T20:38:13.895Z,67.73
2019-05-09T20:40:39.977Z,68.04
2019-05-09T20:43:06.039Z,68.21
2019-05-09T20:45:32.187Z,68.41
2019-05-09T20:47:58.292Z,68.67
2019-05-09T20:50:24.372Z,68.22
2019-05-09T20:53:08.647Z,67.05
2019-05-09T20:55:21.340Z,67.44
2019-05-09T20:57:47.434Z,67.70
2019-05-09T21:00:13.714Z,68.02
2019-05-09T21:02:39.765Z,68.68
2019-05-09T21:05:06.246Z,68.31
2019-05-09T21:07:32.234Z,67.98
2019-05-09T21:09:58.241Z,68.28
2019-05-09T21:12:24.456Z,68.31
2019-05-09T21:14:50.383Z,68.46
2019-05-09T21:17:16.392Z,68.58
2019-05-09T21:19:42.469Z,68.35
2019-05-09T21:22:08.511Z,68.88
2019-05-09T21:24:34.451Z,68.79
2019-05-09T21:27:00.423Z,68.23
2019-05-09T21:29:26.333Z,67.86
2019-05-09T21:31:52.359Z,68.52
2019-05-09T21:34:18.463Z,68.41
2019-05-09T21:36:44.470Z,68.62
2019-05-09T21:39:10.504Z,68.63
2019-05-09T21:41:38.922Z,68.97
2019-05-09T21:44:05.026Z,69.30
2019-05-09T21:46:30.971Z,69.55
2019-05-09T21:48:56.907Z,69.65
2019-05-09T21:51:23.806Z,69.89
2019-05-09T21:53:49.755Z,69.66
2019-05-09T21:56:15.647Z,70.11
2019-05-09T21:58:41.587Z,70.37
2019-05-09T22:01:11.376Z,70.43
2019-05-09T22:03:37.877Z,70.53
2019-05-09T22:06:03.977Z,70.87
2019-05-09T22:08:30.020Z,70.09
2019-05-09T22:10:56.133Z,70.44
2019-05-09T22:13:22.275Z,70.61
2019-05-09T22:15:48.177Z,70.29
2019-05-09T22:18:14.560Z,70.55
2019-05-09T22:20:40.751Z,70.77
2019-05-09T22:23:06.846Z,71.14
2019-05-09T22:25:33.152Z,70.92
2019-05-09T22:27:59.052Z,70.75
2019-05-09T22:30:25.168Z,71.55
2019-05-09T22:32:51.118Z,71.55
2019-05-09T22:35:17.385Z,70.42
2019-05-09T22:37:43.639Z,69.86
2019-05-09T22:40:09.844Z,69.94
2019-05-09T22:42:35.779Z,70.60
2019-05-09T22:45:03.442Z,70.97
2019-05-09T22:47:29.379Z,71.21
2019-05-09T22:49:55.285Z,71.59
2019-05-09T22:52:21.503Z,71.95
2019-05-09T22:54:47.633Z,72.14
2019-05-09T22:57:13.560Z,72.49
2019-05-09T22:59:39.492Z,72.93
2019-05-09T23:02:06.997Z,73.15
2019-05-09T23:04:33.042Z,73.19
2019-05-09T23:07:00.075Z,72.77
2019-05-09T23:09:26.018Z,72.77
2019-05-09T23:11:51.913Z,73.15
2019-05-09T23:14:17.859Z,72.40
2019-05-09T23:16:45.055Z,72.70
2019-05-09T23:19:11.267Z,72.70
2019-05-09T23:21:37.235Z,72.91
2019-05-09T23:24:03.431Z,73.36
2019-05-09T23:26:29.340Z,74.00
2019-05-09T23:28:55.458Z,73.46
2019-05-09T23:31:21.590Z,73.94
2019-05-09T23:33:47.656Z,74.32
2019-05-09T23:36:13.550Z,74.53
2019-05-09T23:38:39.863Z,74.40
2019-05-09T23:41:05.765Z,74.20
2019-05-09T23:43:31.708Z,73.65
2019-05-09T23:45:57.614Z,74.18
2019-05-09T23:48:23.730Z,74.23
2019-05-09T23:50:49.635Z,74.19
2019-05-09T23:53:17.694Z,74.56
2019-05-09T23:55:43.774Z,74.77
2019-05-09T23:58:09.718Z,74.86
